createdAt,value
2023-04-15T00:01:34.054Z,-2.48
2023-04-15T00:06:39.689Z,-2.59
2023-04-15T00:11:44.254Z,-2.55
2023-04-15T00:16:47.490Z,-2.61
2023-04-15T00:21:50.766Z,-2.67
2023-04-15T00:26:55.506Z,-2.72
2023-04-15T00:31:59.190Z,-2.85
2023-04-15T00:37:02.553Z,-2.94
2023-04-15T00:42:07.370Z,-3.04
2023-04-15T00:47:11.316Z,-3.00
2023-04-15T00:52:14.503Z,-2.99
2023-04-15T00:57:19.186Z,-3.00
2023-04-15T01:02:23.225Z,-3.05
2023-04-15T01:07:26.550Z,-3.09
2023-04-15T01:12:34.422Z,-3.35
2023-04-15T01:17:38.329Z,-3.33
2023-04-15T01:22:42.186Z,-3.36
2023-04-15T01:27:47.144Z,-3.39
2023-04-15T01:32:50.568Z,-3.45
2023-04-15T01:38:13.751Z,-3.52
2023-04-15T01:43:18.240Z,-3.51
2023-04-15T01:48:21.656Z,-3.54
2023-04-15T01:53:24.907Z,-3.63
2023-04-15T01:58:29.610Z,-3.67
2023-04-15T02:03:33.118Z,-3.72
2023-04-15T02:08:36.328Z,-3.77
2023-04-15T02:13:40.922Z,-3.75
2023-04-15T02:18:44.042Z,-3.79
2023-04-15T02:23:48.541Z,-3.79
2023-04-15T02:28:53.225Z,-3.85
2023-04-15T02:33:56.295Z,-3.89
2023-04-15T02:39:00.124Z,-3.90
2023-04-15T02:44:04.971Z,-3.90
2023-04-15T02:49:08.730Z,-3.81
2023-04-15T02:54:11.989Z,-3.73
2023-04-15T02:59:16.616Z,-3.62
2023-04-15T03:04:20.013Z,-3.52
2023-04-15T03:09:23.356Z,-3.43
2023-04-15T03:14:27.884Z,-3.25
2023-04-15T03:19:31.954Z,-3.10
2023-04-15T03:24:35.289Z,-2.90
2023-04-15T03:29:39.970Z,-2.69
2023-04-15T03:34:43.511Z,-2.45
2023-04-15T03:39:46.940Z,-2.21
2023-04-15T03:44:51.547Z,-1.96
2023-04-15T03:49:54.787Z,-1.88
2023-04-15T03:54:58.260Z,-1.46
2023-04-15T04:00:02.947Z,-1.20
2023-04-15T04:05:06.668Z,-0.99
2023-04-15T04:10:10.580Z,-0.71
2023-04-15T04:15:15.454Z,-0.49
2023-04-15T04:20:18.785Z,-0.25
2023-04-15T04:25:22.124Z,-0.01
2023-04-15T04:30:26.779Z,0.22
2023-04-15T04:35:30.177Z,0.28
2023-04-15T04:40:33.487Z,0.35
2023-04-15T04:45:38.140Z,0.49
2023-04-15T04:50:41.489Z,0.74
2023-04-15T04:55:44.852Z,1.00
2023-04-15T05:00:49.568Z,1.30
2023-04-15T05:05:53.027Z,1.66
2023-04-15T05:10:56.452Z,1.94
2023-04-15T05:16:01.215Z,2.22
2023-04-15T05:21:04.476Z,2.52
2023-04-15T05:26:08.025Z,2.78
2023-04-15T05:31:12.735Z,3.01
2023-04-15T05:36:15.912Z,3.35
2023-04-15T05:41:19.811Z,3.42
2023-04-15T05:46:24.839Z,3.42
2023-04-15T05:51:28.050Z,3.63
2023-04-15T05:56:31.972Z,3.94
2023-04-15T06:01:36.865Z,4.08
2023-04-15T06:06:40.721Z,4.32
2023-04-15T06:11:44.038Z,4.73
2023-04-15T06:16:48.738Z,4.88
2023-04-15T06:21:52.099Z,5.19
2023-04-15T06:26:55.405Z,5.56
2023-04-15T06:32:00.382Z,5.68
2023-04-15T06:37:05.749Z,5.92
2023-04-15T06:42:10.100Z,6.04
2023-04-15T06:47:15.523Z,6.54
2023-04-15T06:52:19.151Z,7.59
2023-04-15T06:57:22.313Z,8.46
2023-04-15T07:02:27.523Z,9.20
2023-04-15T07:07:30.880Z,9.54
2023-04-15T07:12:34.160Z,9.53
2023-04-15T07:17:38.843Z,9.25
2023-04-15T07:22:42.518Z,9.27
2023-04-15T07:27:45.876Z,9.89
2023-04-15T07:32:50.948Z,10.98
2023-04-15T07:37:54.288Z,12.11
2023-04-15T07:42:58.544Z,13.49
2023-04-15T07:48:03.501Z,15.09
2023-04-15T07:53:07.414Z,16.04
2023-04-15T07:58:10.682Z,17.49
2023-04-15T08:03:15.824Z,18.70
2023-04-15T08:08:19.225Z,19.72
2023-04-15T08:13:22.465Z,19.88
2023-04-15T08:18:27.091Z,20.13
2023-04-15T08:23:30.322Z,20.14
2023-04-15T08:28:33.677Z,19.83
2023-04-15T08:33:38.306Z,19.48
2023-04-15T08:38:41.560Z,20.03
2023-04-15T08:43:50.721Z,20.90
2023-04-15T08:48:59.139Z,21.16
2023-04-15T08:54:03.391Z,21.32
2023-04-15T08:59:07.207Z,21.30
2023-04-15T09:04:12.961Z,20.96
2023-04-15T09:09:16.498Z,21.26
2023-04-15T09:14:19.768Z,21.85
2023-04-15T09:19:25.209Z,20.85
2023-04-15T09:24:38.919Z,20.69
2023-04-15T09:29:43.190Z,20.42
2023-04-15T09:34:48.361Z,21.35
2023-04-15T09:39:53.865Z,22.00
2023-04-15T09:44:57.011Z,21.93
2023-04-15T09:50:02.513Z,21.93
2023-04-15T09:55:08.375Z,21.94
2023-04-15T10:00:14.167Z,22.55
2023-04-15T10:05:19.631Z,22.13
2023-04-15T10:10:23.253Z,22.31
2023-04-15T10:15:28.273Z,21.48
2023-04-15T10:20:33.149Z,20.75
2023-04-15T10:25:36.642Z,20.13
2023-04-15T10:30:40.588Z,20.12
2023-04-15T10:35:46.503Z,19.92
2023-04-15T10:40:51.791Z,20.27
2023-04-15T10:45:55.153Z,20.06
2023-04-15T10:51:02.282Z,20.12
2023-04-15T10:56:06.716Z,20.01
2023-04-15T11:01:10.114Z,20.40
2023-04-15T11:06:15.073Z,20.83
2023-04-15T11:11:18.402Z,22.02
2023-04-15T11:16:21.821Z,21.92
2023-04-15T11:21:28.317Z,22.70
2023-04-15T11:26:32.324Z,23.41
2023-04-15T11:31:35.978Z,23.45
2023-04-15T11:36:40.516Z,23.10
2023-04-15T11:41:44.343Z,22.91
2023-04-15T11:46:47.548Z,22.84
2023-04-15T11:51:52.274Z,22.37
2023-04-15T11:56:56.733Z,21.78
2023-04-15T12:02:00.504Z,20.60
2023-04-15T12:07:07.805Z,20.38
2023-04-15T12:12:12.508Z,19.75
2023-04-15T12:17:16.780Z,19.52
2023-04-15T12:22:22.368Z,19.58
2023-04-15T12:27:29.785Z,20.43
2023-04-15T12:32:37.266Z,20.82
2023-04-15T12:37:42.078Z,20.83
2023-04-15T12:42:45.387Z,21.49
2023-04-15T12:47:48.637Z,23.15
2023-04-15T12:52:53.399Z,24.82
2023-04-15T12:57:56.906Z,26.21
2023-04-15T13:03:00.599Z,27.00
2023-04-15T13:08:05.573Z,26.66
2023-04-15T13:13:08.745Z,25.41
2023-04-15T13:18:12.021Z,25.54
2023-04-15T13:23:16.714Z,25.23
2023-04-15T13:28:20.080Z,25.15
2023-04-15T13:33:23.405Z,25.04
2023-04-15T13:38:28.272Z,24.29
2023-04-15T13:43:33.832Z,24.26
2023-04-15T13:48:37.238Z,23.56
2023-04-15T13:53:41.795Z,24.14
2023-04-15T13:58:45.149Z,24.70
2023-04-15T14:03:48.645Z,23.56
2023-04-15T14:08:53.611Z,22.73
2023-04-15T14:13:56.777Z,22.70
2023-04-15T14:19:00.552Z,22.45
2023-04-15T14:24:05.606Z,22.29
2023-04-15T14:29:09.272Z,22.22
2023-04-15T14:34:12.713Z,21.33
2023-04-15T14:39:17.713Z,19.84
2023-04-15T14:44:21.124Z,18.76
2023-04-15T14:49:24.683Z,18.39
2023-04-15T14:54:29.531Z,17.79
2023-04-15T14:59:33.364Z,17.64
2023-04-15T15:04:40.830Z,17.23
2023-04-15T15:09:45.782Z,16.37
2023-04-15T15:14:49.131Z,14.37
2023-04-15T15:19:52.511Z,12.70
2023-04-15T15:24:59.391Z,11.46
2023-04-15T15:30:02.948Z,10.52
2023-04-15T15:35:07.711Z,9.84
2023-04-15T15:40:13.718Z,9.25
2023-04-15T15:45:17.514Z,8.72
2023-04-15T15:50:22.167Z,8.31
2023-04-15T15:55:27.380Z,7.92
2023-04-15T16:00:30.765Z,7.52
2023-04-15T16:05:34.275Z,7.13
2023-04-15T16:10:39.368Z,6.76
2023-04-15T16:15:43.829Z,6.39
2023-04-15T16:20:47.240Z,5.99
2023-04-15T16:25:52.185Z,5.58
2023-04-15T16:30:56.376Z,5.19
2023-04-15T16:35:59.725Z,4.80
2023-04-15T16:41:04.695Z,4.43
2023-04-15T16:46:08.058Z,3.92
2023-04-15T16:51:11.519Z,3.85
2023-04-15T16:56:16.897Z,3.60
2023-04-15T17:01:21.514Z,3.38
2023-04-15T17:06:24.924Z,3.16
2023-04-15T17:11:31.467Z,2.93
2023-04-15T17:16:34.751Z,2.73
2023-04-15T17:21:38.411Z,2.53
2023-04-15T17:26:44.230Z,2.31
2023-04-15T17:31:49.965Z,2.01
2023-04-15T17:37:13.094Z,1.87
2023-04-15T17:42:37.757Z,1.64
2023-04-15T17:48:03.576Z,1.42
2023-04-15T17:53:27.125Z,1.24
2023-04-15T17:58:53.216Z,1.12
2023-04-15T18:04:16.674Z,1.05
2023-04-15T18:09:39.696Z,0.95
2023-04-15T18:15:05.907Z,0.88
2023-04-15T18:20:29.282Z,0.79
2023-04-15T18:25:34.312Z,0.74
2023-04-15T18:30:39.062Z,0.67
2023-04-15T18:35:43.110Z,0.65
2023-04-15T18:40:46.510Z,0.65
2023-04-15T18:45:54.745Z,0.63
2023-04-15T18:50:58.619Z,0.60
2023-04-15T18:56:03.088Z,0.57
2023-04-15T19:01:10.064Z,0.51
2023-04-15T19:06:17.259Z,0.42
2023-04-15T19:11:21.875Z,0.39
2023-04-15T19:16:26.648Z,0.32
2023-04-15T19:21:33.309Z,0.34
2023-04-15T19:26:38.071Z,0.26
2023-04-15T19:31:43.114Z,0.08
2023-04-15T19:36:46.670Z,-0.04
2023-04-15T19:41:50.189Z,-0.11
2023-04-15T19:46:55.644Z,-0.12
2023-04-15T19:51:59.228Z,-0.17
2023-04-15T19:57:02.724Z,-0.28
2023-04-15T20:02:08.477Z,-0.21
2023-04-15T20:07:11.873Z,-0.09
2023-04-15T20:12:50.362Z,-0.03
2023-04-15T20:17:39.839Z,0.12
2023-04-15T20:22:43.445Z,0.17
2023-04-15T20:27:46.889Z,0.20
2023-04-15T20:32:51.797Z,0.14
2023-04-15T20:37:55.623Z,0.09
2023-04-15T20:42:58.823Z,0.01
2023-04-15T20:48:03.697Z,0.03
2023-04-15T20:53:07.185Z,0.10
2023-04-15T20:58:10.548Z,0.09
2023-04-15T21:03:15.663Z,-0.11
2023-04-15T21:08:19.112Z,-0.16
2023-04-15T21:13:22.353Z,-0.25
2023-04-15T21:18:27.078Z,-0.34
2023-04-15T21:23:31.426Z,-0.41
2023-04-15T21:28:34.902Z,-0.48
2023-04-15T21:33:39.633Z,-0.57
2023-04-15T21:38:43.072Z,-0.60
2023-04-15T21:43:46.373Z,-0.55
2023-04-15T21:48:51.104Z,-0.53
2023-04-15T21:53:54.263Z,-0.61
2023-04-15T21:58:58.784Z,-0.81
2023-04-15T22:04:03.658Z,-0.90
2023-04-15T22:09:07.046Z,-1.00
2023-04-15T22:14:10.624Z,-1.08
2023-04-15T22:19:15.150Z,-1.19
2023-04-15T22:24:39.275Z,-1.30
2023-04-15T22:29:42.010Z,-1.43
2023-04-15T22:34:46.782Z,-1.48
2023-04-15T22:39:50.183Z,-1.57
2023-04-15T22:44:53.743Z,-1.62
2023-04-15T22:49:58.499Z,-1.62
2023-04-15T22:55:02.069Z,-1.75
2023-04-15T23:00:08.857Z,-1.66
2023-04-15T23:05:13.661Z,-1.72
2023-04-15T23:10:17.288Z,-1.81
2023-04-15T23:15:20.624Z,-1.86
2023-04-15T23:20:25.619Z,-1.87
2023-04-15T23:25:29.125Z,-1.86
2023-04-15T23:30:32.717Z,-1.85
2023-04-15T23:35:37.963Z,-1.81
2023-04-15T23:40:41.192Z,-1.77
2023-04-15T23:45:44.461Z,-1.64
2023-04-15T23:50:49.239Z,-1.57
2023-04-15T23:55:52.646Z,-1.60
